createdAt,value
2023-03-05T00:02:48.960Z,94.00
2023-03-05T00:07:52.209Z,94.10
2023-03-05T00:12:56.807Z,94.20
2023-03-05T00:18:00.339Z,94.40
2023-03-05T00:23:03.619Z,94.60
2023-03-05T00:28:08.822Z,94.60
2023-03-05T00:33:13.640Z,94.60
2023-03-05T00:38:17.068Z,94.50
2023-03-05T00:43:21.856Z,94.60
2023-03-05T00:48:25.599Z,94.40
2023-03-05T00:53:29.005Z,94.30
2023-03-05T00:58:33.746Z,94.30
2023-03-05T01:03:37.685Z,94.00
2023-03-05T01:08:41.056Z,94.00
2023-03-05T01:13:45.797Z,93.80
2023-03-05T01:18:49.118Z,93.70
2023-03-05T01:23:52.633Z,93.60
2023-03-05T01:28:57.463Z,93.50
2023-03-05T01:34:01.378Z,93.50
2023-03-05T01:39:04.681Z,93.50
2023-03-05T01:44:17.453Z,93.50
2023-03-05T01:49:24.063Z,93.50
2023-03-05T01:54:32.525Z,93.50
2023-03-05T01:59:38.929Z,93.60
2023-03-05T02:04:46.999Z,93.60
2023-03-05T02:09:50.966Z,93.70
2023-03-05T02:14:59.818Z,93.80
2023-03-05T02:20:10.069Z,93.80
2023-03-05T02:25:18.784Z,93.90
2023-03-05T02:30:22.745Z,94.00
2023-03-05T02:35:27.017Z,94.10
2023-03-05T02:40:31.784Z,94.30
2023-03-05T02:45:35.193Z,94.30
2023-03-05T02:50:40.182Z,94.40
2023-03-05T02:55:48.098Z,94.60
2023-03-05T03:00:51.686Z,94.90
2023-03-05T03:05:55.577Z,95.30
2023-03-05T03:11:06.843Z,95.60
2023-03-05T03:16:12.257Z,95.90
2023-03-05T03:21:20.117Z,96.20
2023-03-05T03:26:25.013Z,96.60
2023-03-05T03:31:28.333Z,96.80
2023-03-05T03:36:32.432Z,96.90
2023-03-05T03:41:37.822Z,97.00
2023-03-05T03:46:42.697Z,97.10
2023-03-05T03:51:46.172Z,97.20
2023-03-05T03:56:51.165Z,97.40
2023-03-05T04:01:54.752Z,97.50
2023-03-05T04:07:01.483Z,98.00
2023-03-05T04:12:06.527Z,98.20
2023-03-05T04:17:20.824Z,98.10
2023-03-05T04:22:24.547Z,98.20
2023-03-05T04:27:30.843Z,97.90
2023-03-05T04:32:34.316Z,97.70
2023-03-05T04:37:38.407Z,97.50
2023-03-05T04:42:43.224Z,97.30
2023-03-05T04:47:46.730Z,97.10
2023-03-05T04:52:50.584Z,97.10
2023-03-05T04:57:55.584Z,96.80
2023-03-05T05:02:59.135Z,96.90
2023-03-05T05:08:02.828Z,97.00
2023-03-05T05:13:08.156Z,97.00
2023-03-05T05:18:11.466Z,97.10
2023-03-05T05:23:15.866Z,97.10
2023-03-05T05:28:20.986Z,97.20
2023-03-05T05:33:25.318Z,97.30
2023-03-05T05:38:28.719Z,97.30
2023-03-05T05:43:34.101Z,97.40
2023-03-05T05:48:37.997Z,97.40
2023-03-05T05:53:42.029Z,97.50
2023-03-05T05:58:48.752Z,97.70
2023-03-05T06:03:52.569Z,97.60
2023-03-05T06:08:56.870Z,97.60
2023-03-05T06:14:03.383Z,97.60
2023-03-05T06:19:07.082Z,97.60
2023-03-05T06:24:11.004Z,97.90
2023-03-05T06:29:16.052Z,98.30
2023-03-05T06:34:19.684Z,98.40
2023-03-05T06:39:23.394Z,98.70
2023-03-05T06:44:28.264Z,99.30
2023-03-05T06:49:32.076Z,99.90
2023-03-05T06:54:35.681Z,99.90
2023-03-05T06:59:40.454Z,99.90
2023-03-05T07:04:44.096Z,99.90
2023-03-05T07:09:50.412Z,99.90
2023-03-05T07:14:55.472Z,99.90
2023-03-05T07:19:59.055Z,99.90
2023-03-05T07:25:02.489Z,99.90
2023-03-05T07:30:08.933Z,99.90
2023-03-05T07:35:12.535Z,99.90
2023-03-05T07:40:16.290Z,99.90
2023-03-05T07:45:21.468Z,99.90
2023-03-05T07:50:24.915Z,99.90
2023-03-05T07:55:28.368Z,99.90
2023-03-05T08:00:33.168Z,99.90
2023-03-05T08:05:40.015Z,99.90
2023-03-05T08:10:43.381Z,99.90
2023-03-05T08:15:48.348Z,99.90
2023-03-05T08:20:51.761Z,99.90
2023-03-05T08:25:55.499Z,99.90
2023-03-05T08:31:00.239Z,99.90
2023-03-05T08:36:03.950Z,99.90
2023-03-05T08:41:07.730Z,99.90
2023-03-05T08:46:14.258Z,99.90
2023-03-05T08:51:19.937Z,99.70
2023-03-05T08:56:23.822Z,99.30
2023-03-05T09:01:29.009Z,98.80
2023-03-05T09:06:32.716Z,98.70
2023-03-05T09:11:36.922Z,98.50
2023-03-05T09:16:41.959Z,98.00
2023-03-05T09:21:45.729Z,98.10
2023-03-05T09:26:49.280Z,97.90
2023-03-05T09:31:54.415Z,97.70
2023-03-05T09:36:58.431Z,97.50
2023-03-05T09:42:25.178Z,97.70
2023-03-05T09:47:46.521Z,99.90
2023-03-05T09:52:56.344Z,99.90
2023-03-05T09:58:06.129Z,99.90
2023-03-05T10:03:19.057Z,99.90
2023-03-05T10:08:28.641Z,99.90
2023-03-05T10:13:38.000Z,99.90
2023-03-05T10:18:52.472Z,99.90
2023-03-05T10:24:12.984Z,99.90
2023-03-05T10:29:46.742Z,99.90
2023-03-05T10:35:17.435Z,99.90
2023-03-05T10:40:29.998Z,99.90
2023-03-05T10:45:37.989Z,99.90
2023-03-05T10:50:47.020Z,99.90
2023-03-05T10:55:51.089Z,99.90
2023-03-05T11:01:06.936Z,99.90
2023-03-05T11:06:14.851Z,99.90
2023-03-05T11:11:19.823Z,99.90
2023-03-05T11:16:25.155Z,99.90
2023-03-05T11:21:30.703Z,99.90
2023-03-05T11:26:34.789Z,99.90
2023-03-05T11:31:38.153Z,99.90
2023-03-05T11:36:45.545Z,99.90
2023-03-05T11:41:51.924Z,99.90
2023-03-05T11:46:59.789Z,99.90
2023-03-05T11:52:10.761Z,99.90
2023-03-05T11:57:15.586Z,99.90
2023-03-05T12:02:21.979Z,99.90
2023-03-05T12:07:35.579Z,99.90
2023-03-05T12:12:46.062Z,99.90
2023-03-05T12:17:59.953Z,99.90
2023-03-05T12:23:04.764Z,99.90
2023-03-05T12:28:15.819Z,99.90
2023-03-05T12:33:36.176Z,99.90
2023-03-05T12:38:40.846Z,99.90
2023-03-05T12:43:44.266Z,99.90
2023-03-05T12:48:47.584Z,99.90
2023-03-05T12:53:53.540Z,99.90
2023-03-05T12:59:01.110Z,99.90
2023-03-05T13:04:14.646Z,99.90
2023-03-05T13:09:25.021Z,99.90
2023-03-05T13:14:38.597Z,99.90
2023-03-05T13:19:43.140Z,99.90
2023-03-05T13:24:48.037Z,99.90
2023-03-05T13:29:55.122Z,99.90
2023-03-05T13:35:00.623Z,99.90
2023-03-05T13:40:16.735Z,99.90
2023-03-05T13:45:25.909Z,99.90
2023-03-05T13:50:32.720Z,99.90
2023-03-05T13:55:37.432Z,99.90
2023-03-05T14:00:41.323Z,99.90
2023-03-05T14:05:45.826Z,99.00
2023-03-05T14:10:51.805Z,97.90
2023-03-05T14:16:06.492Z,96.90
2023-03-05T14:21:11.341Z,95.80
2023-03-05T14:26:29.614Z,95.20
2023-03-05T14:31:37.984Z,94.80
2023-03-05T14:36:41.374Z,94.20
2023-03-05T14:41:46.178Z,94.10
2023-03-05T14:46:50.711Z,93.80
2023-03-05T14:51:54.169Z,93.40
2023-03-05T14:56:58.859Z,93.10
2023-03-05T15:02:02.449Z,92.80
2023-03-05T15:07:05.866Z,92.50
2023-03-05T15:12:12.123Z,92.40
2023-03-05T15:17:20.350Z,92.20
2023-03-05T15:22:23.739Z,92.00
2023-03-05T15:27:28.499Z,91.80
2023-03-05T15:32:32.157Z,91.50
2023-03-05T15:37:35.703Z,91.50
2023-03-05T15:42:40.564Z,91.50
2023-03-05T15:47:43.908Z,91.40
2023-03-05T15:52:47.382Z,91.50
2023-03-05T15:57:53.428Z,91.60
2023-03-05T16:02:56.673Z,91.60
2023-03-05T16:08:01.087Z,91.70
2023-03-05T16:13:10.608Z,92.00
2023-03-05T16:18:16.218Z,92.20
2023-03-05T16:23:19.313Z,92.40
2023-03-05T16:28:23.903Z,92.40
2023-03-05T16:33:27.157Z,92.40
2023-03-05T16:38:30.427Z,92.50
2023-03-05T16:43:35.417Z,92.60
2023-03-05T16:48:38.803Z,92.50
2023-03-05T16:53:42.165Z,92.60
2023-03-05T16:58:46.816Z,92.60
2023-03-05T17:03:52.474Z,92.80
2023-03-05T17:08:57.432Z,92.90
2023-03-05T17:14:03.964Z,92.90
2023-03-05T17:19:07.301Z,93.00
2023-03-05T17:24:10.815Z,93.10
2023-03-05T17:29:15.696Z,93.30
2023-03-05T17:34:23.424Z,93.30
2023-03-05T17:39:31.140Z,93.40
2023-03-05T17:44:35.755Z,93.50
2023-03-05T17:49:38.989Z,93.60
2023-03-05T17:54:42.257Z,93.60
2023-03-05T17:59:47.125Z,93.70
2023-03-05T18:04:52.114Z,93.70
2023-03-05T18:09:55.376Z,93.70
2023-03-05T18:15:00.039Z,93.70
2023-03-05T18:20:04.299Z,93.90
2023-03-05T18:25:08.887Z,94.10
2023-03-05T18:30:14.506Z,94.20
2023-03-05T18:35:18.715Z,94.20
2023-03-05T18:40:24.467Z,94.30
2023-03-05T18:45:29.969Z,94.30
2023-03-05T18:50:33.236Z,94.60
2023-03-05T18:55:36.516Z,94.60
2023-03-05T19:00:42.076Z,94.70
2023-03-05T19:05:45.103Z,94.50
2023-03-05T19:10:48.726Z,94.50
2023-03-05T19:15:53.482Z,94.60
2023-03-05T19:20:57.057Z,95.00
2023-03-05T19:26:01.974Z,95.30
2023-03-05T19:31:06.918Z,95.40
2023-03-05T19:36:11.699Z,95.50
2023-03-05T19:41:16.858Z,95.60
2023-03-05T19:46:21.636Z,95.60
2023-03-05T19:51:27.041Z,95.70
2023-03-05T19:56:30.371Z,95.70
2023-03-05T20:01:35.771Z,95.80
2023-03-05T20:06:39.035Z,95.90
2023-03-05T20:11:42.641Z,95.90
2023-03-05T20:16:47.607Z,95.90
2023-03-05T20:21:50.834Z,95.80
2023-03-05T20:26:54.156Z,95.90
2023-03-05T20:31:58.878Z,95.90
2023-03-05T20:37:02.280Z,95.90
2023-03-05T20:42:05.797Z,95.90
2023-03-05T20:47:26.578Z,96.00
2023-03-05T20:52:29.816Z,96.10
2023-03-05T20:57:33.333Z,96.30
2023-03-05T21:02:37.993Z,96.30
2023-03-05T21:07:41.267Z,96.40
2023-03-05T21:12:44.756Z,96.40
2023-03-05T21:17:49.542Z,96.50
2023-03-05T21:22:52.801Z,96.50
2023-03-05T21:27:58.566Z,96.50
2023-03-05T21:33:05.330Z,96.60
2023-03-05T21:38:10.123Z,96.70
2023-03-05T21:43:17.519Z,96.70
2023-03-05T21:48:23.237Z,96.80
2023-03-05T21:53:27.009Z,96.90
2023-03-05T21:58:31.344Z,96.90
2023-03-05T22:03:36.281Z,97.00
2023-03-05T22:08:39.687Z,97.10
2023-03-05T22:13:43.182Z,97.10
2023-03-05T22:18:48.746Z,97.20
2023-03-05T22:23:53.465Z,97.30
2023-03-05T22:28:57.493Z,97.30
2023-03-05T22:34:02.286Z,97.30
2023-03-05T22:39:05.895Z,97.30
2023-03-05T22:44:09.196Z,97.40
2023-03-05T22:49:13.982Z,97.50
2023-03-05T22:54:17.218Z,97.60
2023-03-05T22:59:20.457Z,97.60
2023-03-05T23:04:40.255Z,97.70
2023-03-05T23:09:43.845Z,97.80
2023-03-05T23:14:47.113Z,97.80
2023-03-05T23:19:51.742Z,97.90
2023-03-05T23:24:54.948Z,97.90
2023-03-05T23:30:08.972Z,98.00
2023-03-05T23:35:15.060Z,98.10
2023-03-05T23:40:20.756Z,98.20
2023-03-05T23:45:24.988Z,98.30
2023-03-05T23:50:31.481Z,98.40
2023-03-05T23:55:36.627Z,98.50
